sensor_id;sensor_type;location;lat;lon;timestamp;temperature;humidity
20125;DHT22;10223;50.862;4.360;2023-06-10T00:01:28;24.10;99.90
20125;DHT22;10223;50.862;4.360;2023-06-10T00:03:55;24.00;99.90
20125;DHT22;10223;50.862;4.360;2023-06-10T00:06:24;24.00;99.90
20125;DHT22;10223;50.862;4.360;2023-06-10T00:08:51;23.90;99.90
20125;DHT22;10223;50.862;4.360;2023-06-10T00:11:17;24.00;99.90
20125;DHT22;10223;50.862;4.360;2023-06-10T00:13:44;23.90;99.90
20125;DHT22;10223;50.862;4.360;2023-06-10T00:16:11;23.80;99.90
20125;DHT22;10223;50.862;4.360;2023-06-10T00:18:38;23.70;99.90
20125;DHT22;10223;50.862;4.360;2023-06-10T00:21:05;23.80;99.90
20125;DHT22;10223;50.862;4.360;2023-06-10T00:23:35;23.80;99.90
20125;DHT22;10223;50.862;4.360;2023-06-10T00:26:03;23.80;99.90
20125;DHT22;10223;50.862;4.360;2023-06-10T00:28:30;23.70;99.90
20125;DHT22;10223;50.862;4.360;2023-06-10T00:30:57;23.70;99.90
20125;DHT22;10223;50.862;4.360;2023-06-10T00:33:24;23.60;99.90
20125;DHT22;10223;50.862;4.360;2023-06-10T00:35:51;23.60;99.90
20125;DHT22;10223;50.862;4.360;2023-06-10T00:38:17;23.70;99.90
20125;DHT22;10223;50.862;4.360;2023-06-10T00:40:46;23.60;99.90
20125;DHT22;10223;50.862;4.360;2023-06-10T00:43:13;23.60;99.90
20125;DHT22;10223;50.862;4.360;2023-06-10T00:45:41;23.70;99.90
20125;DHT22;10223;50.862;4.360;2023-06-10T00:48:08;23.70;99.90
20125;DHT22;10223;50.862;4.360;2023-06-10T00:50:36;23.70;99.90
20125;DHT22;10223;50.862;4.360;2023-06-10T00:53:05;23.70;99.90
20125;DHT22;10223;50.862;4.360;2023-06-10T00:55:33;23.70;99.90
20125;DHT22;10223;50.862;4.360;2023-06-10T00:58:03;23.60;99.90
20125;DHT22;10223;50.862;4.360;2023-06-10T01:00:30;23.40;99.90
20125;DHT22;10223;50.862;4.360;2023-06-10T01:02:57;23.40;99.90
20125;DHT22;10223;50.862;4.360;2023-06-10T01:05:24;23.50;99.90
20125;DHT22;10223;50.862;4.360;2023-06-10T01:07:56;23.40;99.90
20125;DHT22;10223;50.862;4.360;2023-06-10T01:10:32;23.60;99.90
20125;DHT22;10223;50.862;4.360;2023-06-10T01:13:02;23.60;99.90
20125;DHT22;10223;50.862;4.360;2023-06-10T01:15:30;23.30;99.90
20125;DHT22;10223;50.862;4.360;2023-06-10T01:17:58;23.40;99.90
20125;DHT22;10223;50.862;4.360;2023-06-10T01:20:27;23.40;99.90
20125;DHT22;10223;50.862;4.360;2023-06-10T01:22:57;23.60;99.90
20125;DHT22;10223;50.862;4.360;2023-06-10T01:25:25;23.50;99.90
20125;DHT22;10223;50.862;4.360;2023-06-10T01:27:59;23.30;99.90
20125;DHT22;10223;50.862;4.360;2023-06-10T01:30:33;23.30;99.90
20125;DHT22;10223;50.862;4.360;2023-06-10T01:33:05;23.30;99.90
20125;DHT22;10223;50.862;4.360;2023-06-10T01:35:33;23.10;99.90
20125;DHT22;10223;50.862;4.360;2023-06-10T01:38:05;23.10;99.90
20125;DHT22;10223;50.862;4.360;2023-06-10T01:40:32;23.10;99.90
20125;DHT22;10223;50.862;4.360;2023-06-10T01:43:00;23.10;99.90
20125;DHT22;10223;50.862;4.360;2023-06-10T01:45:27;23.10;99.90
20125;DHT22;10223;50.862;4.360;2023-06-10T01:47:54;23.10;99.90
20125;DHT22;10223;50.862;4.360;2023-06-10T01:50:21;23.00;99.90
20125;DHT22;10223;50.862;4.360;2023-06-10T01:52:48;23.00;99.90
20125;DHT22;10223;50.862;4.360;2023-06-10T01:55:16;22.90;99.90
20125;DHT22;10223;50.862;4.360;2023-06-10T01:57:43;23.00;99.90
20125;DHT22;10223;50.862;4.360;2023-06-10T02:00:11;23.00;99.90
20125;DHT22;10223;50.862;4.360;2023-06-10T02:02:38;22.80;99.90
20125;DHT22;10223;50.862;4.360;2023-06-10T02:05:06;22.80;99.90
20125;DHT22;10223;50.862;4.360;2023-06-10T02:07:33;23.00;99.90
20125;DHT22;10223;50.862;4.360;2023-06-10T02:09:59;22.80;99.90
20125;DHT22;10223;50.862;4.360;2023-06-10T02:12:28;22.90;99.90
20125;DHT22;10223;50.862;4.360;2023-06-10T02:14:55;22.90;99.90
20125;DHT22;10223;50.862;4.360;2023-06-10T02:17:22;22.90;99.90
20125;DHT22;10223;50.862;4.360;2023-06-10T02:19:49;22.90;99.90
20125;DHT22;10223;50.862;4.360;2023-06-10T02:22:20;22.90;99.90
20125;DHT22;10223;50.862;4.360;2023-06-10T02:24:47;22.80;99.90
20125;DHT22;10223;50.862;4.360;2023-06-10T02:27:15;22.80;99.90
20125;DHT22;10223;50.862;4.360;2023-06-10T02:29:43;22.80;99.90
20125;DHT22;10223;50.862;4.360;2023-06-10T02:32:10;22.80;99.90
20125;DHT22;10223;50.862;4.360;2023-06-10T02:34:37;22.80;99.90
20125;DHT22;10223;50.862;4.360;2023-06-10T02:37:04;22.60;99.90
20125;DHT22;10223;50.862;4.360;2023-06-10T02:39:31;22.70;99.90
20125;DHT22;10223;50.862;4.360;2023-06-10T02:41:58;22.50;99.90
20125;DHT22;10223;50.862;4.360;2023-06-10T02:44:25;22.60;99.90
20125;DHT22;10223;50.862;4.360;2023-06-10T02:46:53;22.40;99.90
20125;DHT22;10223;50.862;4.360;2023-06-10T02:49:20;22.40;99.90
20125;DHT22;10223;50.862;4.360;2023-06-10T02:51:47;22.30;99.90
20125;DHT22;10223;50.862;4.360;2023-06-10T02:54:15;22.30;99.90
20125;DHT22;10223;50.862;4.360;2023-06-10T02:56:42;22.20;99.90
20125;DHT22;10223;50.862;4.360;2023-06-10T02:59:09;22.30;99.90
20125;DHT22;10223;50.862;4.360;2023-06-10T03:01:36;22.20;99.90
20125;DHT22;10223;50.862;4.360;2023-06-10T03:04:05;22.30;99.90
20125;DHT22;10223;50.862;4.360;2023-06-10T03:06:32;22.20;99.90
20125;DHT22;10223;50.862;4.360;2023-06-10T03:09:01;22.30;99.90
20125;DHT22;10223;50.862;4.360;2023-06-10T03:11:28;22.20;99.90
20125;DHT22;10223;50.862;4.360;2023-06-10T03:13:55;22.30;99.90
20125;DHT22;10223;50.862;4.360;2023-06-10T03:16:23;22.40;99.90
20125;DHT22;10223;50.862;4.360;2023-06-10T03:18:51;22.50;99.90
20125;DHT22;10223;50.862;4.360;2023-06-10T03:21:19;22.40;99.90
20125;DHT22;10223;50.862;4.360;2023-06-10T03:23:46;22.40;99.90
20125;DHT22;10223;50.862;4.360;2023-06-10T03:26:13;22.40;99.90
20125;DHT22;10223;50.862;4.360;2023-06-10T03:28:41;22.30;99.90
20125;DHT22;10223;50.862;4.360;2023-06-10T03:31:08;22.10;99.90
20125;DHT22;10223;50.862;4.360;2023-06-10T03:33:35;22.10;99.90
20125;DHT22;10223;50.862;4.360;2023-06-10T03:36:03;21.90;99.90
20125;DHT22;10223;50.862;4.360;2023-06-10T03:38:31;22.00;99.90
20125;DHT22;10223;50.862;4.360;2023-06-10T03:40:58;22.00;99.90
20125;DHT22;10223;50.862;4.360;2023-06-10T03:43:25;21.90;99.90
20125;DHT22;10223;50.862;4.360;2023-06-10T03:45:53;21.80;99.90
20125;DHT22;10223;50.862;4.360;2023-06-10T03:48:20;21.90;99.90
20125;DHT22;10223;50.862;4.360;2023-06-10T03:50:46;21.80;99.90
20125;DHT22;10223;50.862;4.360;2023-06-10T03:53:16;21.90;99.90
20125;DHT22;10223;50.862;4.360;2023-06-10T03:55:44;21.80;99.90
20125;DHT22;10223;50.862;4.360;2023-06-10T03:58:11;21.70;99.90
20125;DHT22;10223;50.862;4.360;2023-06-10T04:00:38;21.80;99.90
20125;DHT22;10223;50.862;4.360;2023-06-10T04:03:08;21.80;99.90
20125;DHT22;10223;50.862;4.360;2023-06-10T04:05:39;21.80;99.90
20125;DHT22;10223;50.862;4.360;2023-06-10T04:08:06;21.80;99.90
20125;DHT22;10223;50.862;4.360;2023-06-10T04:10:33;21.80;99.90
20125;DHT22;10223;50.862;4.360;2023-06-10T04:13:02;21.80;99.90
20125;DHT22;10223;50.862;4.360;2023-06-10T04:15:29;21.90;99.90
20125;DHT22;10223;50.862;4.360;2023-06-10T04:17:58;22.10;99.90
20125;DHT22;10223;50.862;4.360;2023-06-10T04:20:25;21.90;99.90
20125;DHT22;10223;50.862;4.360;2023-06-10T04:22:52;21.80;99.90
20125;DHT22;10223;50.862;4.360;2023-06-10T04:25:19;21.70;99.90
20125;DHT22;10223;50.862;4.360;2023-06-10T04:27:46;21.50;99.90
20125;DHT22;10223;50.862;4.360;2023-06-10T04:30:16;21.50;99.90
20125;DHT22;10223;50.862;4.360;2023-06-10T04:32:43;21.60;99.90
20125;DHT22;10223;50.862;4.360;2023-06-10T04:35:11;21.70;99.90
20125;DHT22;10223;50.862;4.360;2023-06-10T04:37:38;21.60;99.90
20125;DHT22;10223;50.862;4.360;2023-06-10T04:40:06;21.70;99.90
20125;DHT22;10223;50.862;4.360;2023-06-10T04:42:33;21.70;99.90
20125;DHT22;10223;50.862;4.360;2023-06-10T04:45:00;21.70;99.90
20125;DHT22;10223;50.862;4.360;2023-06-10T04:47:29;21.80;99.90
20125;DHT22;10223;50.862;4.360;2023-06-10T04:49:58;21.60;99.90
20125;DHT22;10223;50.862;4.360;2023-06-10T04:52:25;21.60;99.90
20125;DHT22;10223;50.862;4.360;2023-06-10T04:54:52;21.60;99.90
20125;DHT22;10223;50.862;4.360;2023-06-10T04:57:19;21.60;99.90
20125;DHT22;10223;50.862;4.360;2023-06-10T04:59:46;21.70;99.90
20125;DHT22;10223;50.862;4.360;2023-06-10T05:02:13;21.60;99.90
20125;DHT22;10223;50.862;4.360;2023-06-10T05:04:42;21.80;99.90
20125;DHT22;10223;50.862;4.360;2023-06-10T05:07:08;21.80;99.90
20125;DHT22;10223;50.862;4.360;2023-06-10T05:09:35;21.90;99.90
20125;DHT22;10223;50.862;4.360;2023-06-10T05:12:03;21.80;99.90
20125;DHT22;10223;50.862;4.360;2023-06-10T05:14:30;21.90;99.90
20125;DHT22;10223;50.862;4.360;2023-06-10T05:16:57;21.90;99.90
20125;DHT22;10223;50.862;4.360;2023-06-10T05:19:24;21.90;99.90
20125;DHT22;10223;50.862;4.360;2023-06-10T05:21:52;22.10;99.90
20125;DHT22;10223;50.862;4.360;2023-06-10T05:24:19;22.10;99.90
20125;DHT22;10223;50.862;4.360;2023-06-10T05:26:46;22.20;99.90
20125;DHT22;10223;50.862;4.360;2023-06-10T05:29:14;22.30;99.90
20125;DHT22;10223;50.862;4.360;2023-06-10T05:31:42;22.30;99.90
20125;DHT22;10223;50.862;4.360;2023-06-10T05:34:08;22.20;99.90
20125;DHT22;10223;50.862;4.360;2023-06-10T05:36:35;22.10;99.90
20125;DHT22;10223;50.862;4.360;2023-06-10T05:39:04;22.10;99.90
20125;DHT22;10223;50.862;4.360;2023-06-10T05:41:31;22.10;99.90
20125;DHT22;10223;50.862;4.360;2023-06-10T05:43:57;22.20;99.90
20125;DHT22;10223;50.862;4.360;2023-06-10T05:46:24;22.10;99.90
20125;DHT22;10223;50.862;4.360;2023-06-10T05:48:51;22.10;99.90
20125;DHT22;10223;50.862;4.360;2023-06-10T05:51:19;22.30;99.90
20125;DHT22;10223;50.862;4.360;2023-06-10T05:53:45;22.40;99.90
20125;DHT22;10223;50.862;4.360;2023-06-10T05:56:14;22.50;99.90
20125;DHT22;10223;50.862;4.360;2023-06-10T05:58:41;22.60;99.90
20125;DHT22;10223;50.862;4.360;2023-06-10T06:01:08;22.60;99.90
20125;DHT22;10223;50.862;4.360;2023-06-10T06:03:35;22.70;99.90
20125;DHT22;10223;50.862;4.360;2023-06-10T06:06:03;22.70;99.90
20125;DHT22;10223;50.862;4.360;2023-06-10T06:08:30;22.60;99.90
20125;DHT22;10223;50.862;4.360;2023-06-10T06:10:57;22.70;99.90
20125;DHT22;10223;50.862;4.360;2023-06-10T06:13:25;22.80;99.90
20125;DHT22;10223;50.862;4.360;2023-06-10T06:15:52;22.70;99.90
20125;DHT22;10223;50.862;4.360;2023-06-10T06:18:19;22.90;99.90
20125;DHT22;10223;50.862;4.360;2023-06-10T06:20:46;22.90;99.90
20125;DHT22;10223;50.862;4.360;2023-06-10T06:23:13;22.90;99.90
20125;DHT22;10223;50.862;4.360;2023-06-10T06:25:40;22.90;99.90
20125;DHT22;10223;50.862;4.360;2023-06-10T06:28:07;22.90;99.90
20125;DHT22;10223;50.862;4.360;2023-06-10T06:30:36;22.90;99.90
20125;DHT22;10223;50.862;4.360;2023-06-10T06:33:03;22.90;99.90
20125;DHT22;10223;50.862;4.360;2023-06-10T06:35:30;23.00;99.90
20125;DHT22;10223;50.862;4.360;2023-06-10T06:37:58;23.00;99.90
20125;DHT22;10223;50.862;4.360;2023-06-10T06:40:25;23.10;99.90
20125;DHT22;10223;50.862;4.360;2023-06-10T06:42:52;23.00;99.90
20125;DHT22;10223;50.862;4.360;2023-06-10T06:45:19;22.90;99.90
20125;DHT22;10223;50.862;4.360;2023-06-10T06:47:47;22.90;99.90
20125;DHT22;10223;50.862;4.360;2023-06-10T06:50:15;23.00;99.90
20125;DHT22;10223;50.862;4.360;2023-06-10T06:52:42;23.10;99.90
20125;DHT22;10223;50.862;4.360;2023-06-10T06:55:09;23.00;99.90
20125;DHT22;10223;50.862;4.360;2023-06-10T06:57:36;23.20;99.90
20125;DHT22;10223;50.862;4.360;2023-06-10T07:00:04;23.30;99.90
20125;DHT22;10223;50.862;4.360;2023-06-10T07:02:31;23.60;99.90
20125;DHT22;10223;50.862;4.360;2023-06-10T07:05:00;23.70;99.90
20125;DHT22;10223;50.862;4.360;2023-06-10T07:07:27;23.70;99.90
20125;DHT22;10223;50.862;4.360;2023-06-10T07:09:54;23.70;99.90
20125;DHT22;10223;50.862;4.360;2023-06-10T07:12:21;23.90;99.90
20125;DHT22;10223;50.862;4.360;2023-06-10T07:14:49;23.80;99.90
20125;DHT22;10223;50.862;4.360;2023-06-10T07:17:16;23.80;99.90
20125;DHT22;10223;50.862;4.360;2023-06-10T07:19:43;24.00;99.90
20125;DHT22;10223;50.862;4.360;2023-06-10T07:22:11;24.30;99.90
20125;DHT22;10223;50.862;4.360;2023-06-10T07:24:38;24.60;99.90
20125;DHT22;10223;50.862;4.360;2023-06-10T07:27:06;24.80;99.90
20125;DHT22;10223;50.862;4.360;2023-06-10T07:29:33;25.10;99.90
20125;DHT22;10223;50.862;4.360;2023-06-10T07:32:01;25.30;99.90
20125;DHT22;10223;50.862;4.360;2023-06-10T07:34:28;25.80;99.90
20125;DHT22;10223;50.862;4.360;2023-06-10T07:36:55;25.50;99.90
20125;DHT22;10223;50.862;4.360;2023-06-10T07:39:23;25.10;99.90
20125;DHT22;10223;50.862;4.360;2023-06-10T07:41:50;25.20;99.90
20125;DHT22;10223;50.862;4.360;2023-06-10T07:44:19;25.70;99.90
20125;DHT22;10223;50.862;4.360;2023-06-10T07:46:46;26.30;99.90
20125;DHT22;10223;50.862;4.360;2023-06-10T07:49:13;26.40;99.90
20125;DHT22;10223;50.862;4.360;2023-06-10T07:51:40;27.00;99.90
20125;DHT22;10223;50.862;4.360;2023-06-10T07:54:07;27.20;99.90
20125;DHT22;10223;50.862;4.360;2023-06-10T07:56:35;27.60;99.90
20125;DHT22;10223;50.862;4.360;2023-06-10T07:59:02;27.80;99.90
20125;DHT22;10223;50.862;4.360;2023-06-10T08:01:29;28.40;99.90
20125;DHT22;10223;50.862;4.360;2023-06-10T08:03:56;28.90;99.90
20125;DHT22;10223;50.862;4.360;2023-06-10T08:06:23;29.00;99.90
20125;DHT22;10223;50.862;4.360;2023-06-10T08:08:50;28.80;99.90
20125;DHT22;10223;50.862;4.360;2023-06-10T08:11:17;29.00;99.90
20125;DHT22;10223;50.862;4.360;2023-06-10T08:13:46;29.00;99.90
20125;DHT22;10223;50.862;4.360;2023-06-10T08:16:12;28.60;99.90
20125;DHT22;10223;50.862;4.360;2023-06-10T08:18:40;28.90;99.90
20125;DHT22;10223;50.862;4.360;2023-06-10T08:21:07;29.00;99.90
20125;DHT22;10223;50.862;4.360;2023-06-10T08:23:34;28.90;99.90
20125;DHT22;10223;50.862;4.360;2023-06-10T08:26:01;29.30;99.90
20125;DHT22;10223;50.862;4.360;2023-06-10T08:28:27;29.10;99.90
20125;DHT22;10223;50.862;4.360;2023-06-10T08:30:56;29.60;99.90
20125;DHT22;10223;50.862;4.360;2023-06-10T08:33:23;30.00;99.90
20125;DHT22;10223;50.862;4.360;2023-06-10T08:35:50;30.20;99.90
20125;DHT22;10223;50.862;4.360;2023-06-10T08:38:17;30.20;99.90
20125;DHT22;10223;50.862;4.360;2023-06-10T08:40:44;30.20;99.90
20125;DHT22;10223;50.862;4.360;2023-06-10T08:43:17;30.00;99.90
20125;DHT22;10223;50.862;4.360;2023-06-10T08:45:48;29.30;99.90
20125;DHT22;10223;50.862;4.360;2023-06-10T08:48:19;29.00;99.90
20125;DHT22;10223;50.862;4.360;2023-06-10T08:50:47;29.50;99.90
20125;DHT22;10223;50.862;4.360;2023-06-10T08:53:18;28.50;99.90
20125;DHT22;10223;50.862;4.360;2023-06-10T08:55:50;28.70;99.90
20125;DHT22;10223;50.862;4.360;2023-06-10T08:58:18;28.80;99.90
20125;DHT22;10223;50.862;4.360;2023-06-10T09:00:45;29.10;99.90
20125;DHT22;10223;50.862;4.360;2023-06-10T09:03:12;28.80;99.90
20125;DHT22;10223;50.862;4.360;2023-06-10T09:05:42;28.80;99.90
20125;DHT22;10223;50.862;4.360;2023-06-10T09:08:09;29.00;99.90
20125;DHT22;10223;50.862;4.360;2023-06-10T09:10:36;29.70;99.90
20125;DHT22;10223;50.862;4.360;2023-06-10T09:13:03;30.30;99.90
20125;DHT22;10223;50.862;4.360;2023-06-10T09:15:30;30.20;99.90
20125;DHT22;10223;50.862;4.360;2023-06-10T09:17:57;30.30;99.90
20125;DHT22;10223;50.862;4.360;2023-06-10T09:20:25;30.60;99.60
20125;DHT22;10223;50.862;4.360;2023-06-10T09:22:53;30.60;98.50
20125;DHT22;10223;50.862;4.360;2023-06-10T09:25:34;30.40;98.90
20125;DHT22;10223;50.862;4.360;2023-06-10T09:28:01;30.10;99.40
20125;DHT22;10223;50.862;4.360;2023-06-10T09:30:30;29.20;99.90
20125;DHT22;10223;50.862;4.360;2023-06-10T09:32:58;29.10;99.90
20125;DHT22;10223;50.862;4.360;2023-06-10T09:35:26;29.30;99.90
20125;DHT22;10223;50.862;4.360;2023-06-10T09:37:56;29.70;99.90
20125;DHT22;10223;50.862;4.360;2023-06-10T09:40:23;30.10;99.00
20125;DHT22;10223;50.862;4.360;2023-06-10T09:42:53;30.10;98.10
20125;DHT22;10223;50.862;4.360;2023-06-10T09:45:22;29.80;98.70
20125;DHT22;10223;50.862;4.360;2023-06-10T09:47:51;30.00;98.20
20125;DHT22;10223;50.862;4.360;2023-06-10T09:50:18;30.30;98.30
20125;DHT22;10223;50.862;4.360;2023-06-10T09:52:46;30.60;98.10
20125;DHT22;10223;50.862;4.360;2023-06-10T09:55:15;30.90;97.60
20125;DHT22;10223;50.862;4.360;2023-06-10T09:57:42;30.80;96.90
20125;DHT22;10223;50.862;4.360;2023-06-10T10:00:14;31.10;96.80
20125;DHT22;10223;50.862;4.360;2023-06-10T10:02:46;30.80;96.40
20125;DHT22;10223;50.862;4.360;2023-06-10T10:05:13;30.90;96.50
20125;DHT22;10223;50.862;4.360;2023-06-10T10:07:41;31.20;95.30
20125;DHT22;10223;50.862;4.360;2023-06-10T10:10:08;31.40;94.80
20125;DHT22;10223;50.862;4.360;2023-06-10T10:12:38;31.60;94.80
20125;DHT22;10223;50.862;4.360;2023-06-10T10:15:06;31.80;93.70
20125;DHT22;10223;50.862;4.360;2023-06-10T10:17:34;31.70;92.50
20125;DHT22;10223;50.862;4.360;2023-06-10T10:20:05;30.70;94.10
20125;DHT22;10223;50.862;4.360;2023-06-10T10:22:38;29.60;95.40
20125;DHT22;10223;50.862;4.360;2023-06-10T10:25:10;29.90;95.10
20125;DHT22;10223;50.862;4.360;2023-06-10T10:27:43;30.20;94.20
20125;DHT22;10223;50.862;4.360;2023-06-10T10:30:12;30.60;94.00
20125;DHT22;10223;50.862;4.360;2023-06-10T10:32:45;31.00;93.90
20125;DHT22;10223;50.862;4.360;2023-06-10T10:35:17;30.90;92.60
20125;DHT22;10223;50.862;4.360;2023-06-10T10:37:47;30.10;93.50
20125;DHT22;10223;50.862;4.360;2023-06-10T10:40:15;30.30;93.80
20125;DHT22;10223;50.862;4.360;2023-06-10T10:42:44;30.80;92.90
20125;DHT22;10223;50.862;4.360;2023-06-10T10:45:11;30.10;92.70
20125;DHT22;10223;50.862;4.360;2023-06-10T10:47:39;30.20;92.80
20125;DHT22;10223;50.862;4.360;2023-06-10T10:50:20;30.00;92.70
20125;DHT22;10223;50.862;4.360;2023-06-10T10:52:53;29.60;93.50
20125;DHT22;10223;50.862;4.360;2023-06-10T10:55:20;29.80;93.00
20125;DHT22;10223;50.862;4.360;2023-06-10T10:57:54;30.20;91.60
20125;DHT22;10223;50.862;4.360;2023-06-10T11:00:31;30.40;91.60
20125;DHT22;10223;50.862;4.360;2023-06-10T11:03:02;30.60;91.40
20125;DHT22;10223;50.862;4.360;2023-06-10T11:05:38;30.60;89.20
20125;DHT22;10223;50.862;4.360;2023-06-10T11:08:08;30.70;85.40
20125;DHT22;10223;50.862;4.360;2023-06-10T11:10:36;30.90;84.40
20125;DHT22;10223;50.862;4.360;2023-06-10T11:13:08;31.00;84.50
20125;DHT22;10223;50.862;4.360;2023-06-10T11:15:39;31.30;87.30
20125;DHT22;10223;50.862;4.360;2023-06-10T11:18:13;31.40;86.80
20125;DHT22;10223;50.862;4.360;2023-06-10T11:20:59;31.20;83.60
20125;DHT22;10223;50.862;4.360;2023-06-10T11:23:40;31.10;81.40
20125;DHT22;10223;50.862;4.360;2023-06-10T11:26:15;31.30;81.80
20125;DHT22;10223;50.862;4.360;2023-06-10T11:29:01;31.10;80.60
20125;DHT22;10223;50.862;4.360;2023-06-10T11:31:30;30.80;81.80
20125;DHT22;10223;50.862;4.360;2023-06-10T11:33:59;30.90;83.30
20125;DHT22;10223;50.862;4.360;2023-06-10T11:36:28;31.10;84.20
20125;DHT22;10223;50.862;4.360;2023-06-10T11:38:57;30.90;85.60
20125;DHT22;10223;50.862;4.360;2023-06-10T11:41:24;30.90;86.70
20125;DHT22;10223;50.862;4.360;2023-06-10T11:43:52;30.90;87.00
20125;DHT22;10223;50.862;4.360;2023-06-10T11:46:19;31.30;87.00
20125;DHT22;10223;50.862;4.360;2023-06-10T11:48:50;31.40;85.10
20125;DHT22;10223;50.862;4.360;2023-06-10T11:51:18;31.40;84.40
20125;DHT22;10223;50.862;4.360;2023-06-10T11:53:47;31.20;81.90
20125;DHT22;10223;50.862;4.360;2023-06-10T11:56:19;31.10;82.70
20125;DHT22;10223;50.862;4.360;2023-06-10T11:58:52;30.90;82.70
20125;DHT22;10223;50.862;4.360;2023-06-10T12:01:20;30.60;83.40
20125;DHT22;10223;50.862;4.360;2023-06-10T12:03:56;30.80;83.20
20125;DHT22;10223;50.862;4.360;2023-06-10T12:06:23;30.70;83.60
20125;DHT22;10223;50.862;4.360;2023-06-10T12:08:51;31.00;82.90
20125;DHT22;10223;50.862;4.360;2023-06-10T12:11:18;31.00;82.50
20125;DHT22;10223;50.862;4.360;2023-06-10T12:13:46;30.50;84.80
20125;DHT22;10223;50.862;4.360;2023-06-10T12:16:16;30.20;86.00
20125;DHT22;10223;50.862;4.360;2023-06-10T12:18:46;30.20;86.60
20125;DHT22;10223;50.862;4.360;2023-06-10T12:21:20;30.40;87.20
20125;DHT22;10223;50.862;4.360;2023-06-10T12:24:04;30.70;85.70
20125;DHT22;10223;50.862;4.360;2023-06-10T12:26:39;30.70;85.30
20125;DHT22;10223;50.862;4.360;2023-06-10T12:29:16;30.80;84.70
20125;DHT22;10223;50.862;4.360;2023-06-10T12:31:55;31.00;84.60
20125;DHT22;10223;50.862;4.360;2023-06-10T12:34:28;31.10;84.20
20125;DHT22;10223;50.862;4.360;2023-06-10T12:36:56;30.80;85.20
20125;DHT22;10223;50.862;4.360;2023-06-10T12:39:24;31.20;84.90
20125;DHT22;10223;50.862;4.360;2023-06-10T12:41:51;31.30;83.80
20125;DHT22;10223;50.862;4.360;2023-06-10T12:44:27;31.50;83.90
20125;DHT22;10223;50.862;4.360;2023-06-10T12:46:55;31.60;83.10
20125;DHT22;10223;50.862;4.360;2023-06-10T12:49:22;31.70;82.70
20125;DHT22;10223;50.862;4.360;2023-06-10T12:51:48;31.80;82.80
20125;DHT22;10223;50.862;4.360;2023-06-10T12:54:15;31.90;82.20
20125;DHT22;10223;50.862;4.360;2023-06-10T12:56:44;31.90;81.90
20125;DHT22;10223;50.862;4.360;2023-06-10T12:59:11;32.10;81.40
20125;DHT22;10223;50.862;4.360;2023-06-10T13:01:38;32.00;81.50
20125;DHT22;10223;50.862;4.360;2023-06-10T13:04:05;31.60;82.40
20125;DHT22;10223;50.862;4.360;2023-06-10T13:06:32;31.50;82.90
20125;DHT22;10223;50.862;4.360;2023-06-10T13:09:02;31.10;83.60
20125;DHT22;10223;50.862;4.360;2023-06-10T13:11:30;30.80;83.80
20125;DHT22;10223;50.862;4.360;2023-06-10T13:13:59;31.00;84.20
20125;DHT22;10223;50.862;4.360;2023-06-10T13:16:26;31.00;84.60
20125;DHT22;10223;50.862;4.360;2023-06-10T13:18:53;31.40;84.10
20125;DHT22;10223;50.862;4.360;2023-06-10T13:21:21;31.50;82.80
20125;DHT22;10223;50.862;4.360;2023-06-10T13:23:48;31.70;82.40
20125;DHT22;10223;50.862;4.360;2023-06-10T13:26:15;31.90;82.60
20125;DHT22;10223;50.862;4.360;2023-06-10T13:28:43;32.20;82.20
20125;DHT22;10223;50.862;4.360;2023-06-10T13:31:11;32.30;81.60
20125;DHT22;10223;50.862;4.360;2023-06-10T13:33:38;32.30;80.60
20125;DHT22;10223;50.862;4.360;2023-06-10T13:36:06;32.30;80.40
20125;DHT22;10223;50.862;4.360;2023-06-10T13:38:32;32.70;79.40
20125;DHT22;10223;50.862;4.360;2023-06-10T13:40:59;32.40;79.40
20125;DHT22;10223;50.862;4.360;2023-06-10T13:43:26;32.60;79.10
20125;DHT22;10223;50.862;4.360;2023-06-10T13:45:54;32.70;78.90
20125;DHT22;10223;50.862;4.360;2023-06-10T13:48:25;32.90;77.90
20125;DHT22;10223;50.862;4.360;2023-06-10T13:50:52;32.80;78.10
20125;DHT22;10223;50.862;4.360;2023-06-10T13:53:19;32.60;78.20
20125;DHT22;10223;50.862;4.360;2023-06-10T13:55:45;33.10;78.20
20125;DHT22;10223;50.862;4.360;2023-06-10T13:58:12;33.60;77.50
20125;DHT22;10223;50.862;4.360;2023-06-10T14:00:39;33.90;75.20
20125;DHT22;10223;50.862;4.360;2023-06-10T14:03:06;33.30;76.00
20125;DHT22;10223;50.862;4.360;2023-06-10T14:05:34;32.30;77.50
20125;DHT22;10223;50.862;4.360;2023-06-10T14:08:01;32.10;78.20
20125;DHT22;10223;50.862;4.360;2023-06-10T14:10:28;32.00;78.80
20125;DHT22;10223;50.862;4.360;2023-06-10T14:12:55;32.30;77.60
20125;DHT22;10223;50.862;4.360;2023-06-10T14:15:22;32.60;78.00
20125;DHT22;10223;50.862;4.360;2023-06-10T14:17:49;33.00;76.80
20125;DHT22;10223;50.862;4.360;2023-06-10T14:20:16;33.50;76.50
20125;DHT22;10223;50.862;4.360;2023-06-10T14:22:44;33.90;75.80
20125;DHT22;10223;50.862;4.360;2023-06-10T14:25:11;34.10;75.50
20125;DHT22;10223;50.862;4.360;2023-06-10T14:27:38;34.80;74.40
20125;DHT22;10223;50.862;4.360;2023-06-10T14:30:06;34.70;73.70
20125;DHT22;10223;50.862;4.360;2023-06-10T14:32:33;35.20;74.20
20125;DHT22;10223;50.862;4.360;2023-06-10T14:35:00;35.50;72.70
20125;DHT22;10223;50.862;4.360;2023-06-10T14:37:27;33.90;74.20
20125;DHT22;10223;50.862;4.360;2023-06-10T14:39:55;34.00;73.60
20125;DHT22;10223;50.862;4.360;2023-06-10T14:42:23;34.30;73.30
20125;DHT22;10223;50.862;4.360;2023-06-10T14:44:50;34.10;73.70
20125;DHT22;10223;50.862;4.360;2023-06-10T14:47:17;34.40;72.90
20125;DHT22;10223;50.862;4.360;2023-06-10T14:49:44;34.60;73.00
20125;DHT22;10223;50.862;4.360;2023-06-10T14:52:11;34.10;73.30
20125;DHT22;10223;50.862;4.360;2023-06-10T14:54:38;33.80;73.90
20125;DHT22;10223;50.862;4.360;2023-06-10T14:57:07;34.10;73.00
20125;DHT22;10223;50.862;4.360;2023-06-10T14:59:34;34.70;72.10
20125;DHT22;10223;50.862;4.360;2023-06-10T15:02:01;34.90;71.10
20125;DHT22;10223;50.862;4.360;2023-06-10T15:04:28;34.80;71.10
20125;DHT22;10223;50.862;4.360;2023-06-10T15:06:55;35.40;70.80
20125;DHT22;10223;50.862;4.360;2023-06-10T15:09:22;35.70;70.50
20125;DHT22;10223;50.862;4.360;2023-06-10T15:11:49;35.40;70.00
20125;DHT22;10223;50.862;4.360;2023-06-10T15:14:22;35.00;69.70
20125;DHT22;10223;50.862;4.360;2023-06-10T15:16:49;35.00;70.10
20125;DHT22;10223;50.862;4.360;2023-06-10T15:19:16;35.40;69.50
20125;DHT22;10223;50.862;4.360;2023-06-10T15:21:43;35.30;69.20
20125;DHT22;10223;50.862;4.360;2023-06-10T15:24:10;34.70;70.20
20125;DHT22;10223;50.862;4.360;2023-06-10T15:26:37;34.10;70.40
20125;DHT22;10223;50.862;4.360;2023-06-10T15:29:04;33.90;70.60
20125;DHT22;10223;50.862;4.360;2023-06-10T15:31:33;34.00;70.80
20125;DHT22;10223;50.862;4.360;2023-06-10T15:34:00;34.10;71.60
20125;DHT22;10223;50.862;4.360;2023-06-10T15:36:27;33.70;70.70